Stacja Pogody
Warszawa Praga-Północ

Szerokość 52°15'43"N Długość 21°01'22"E Wysokość 110m n.p.m.

Depesza TAF dla Warszawy

TAF EPWA 160530Z 1606/1706 14005KT CAVOK 
PROB40 1700/1706 3000 BR   
    
Stacja:                                                                                 
Dzień miesiąca: 16, godzina: 05:30 UTC                                                           
Wiatr: kierunek 135° (południowo wschodni), prędkość 9.3 km/h (2 w skali Beauforta)
Widzialność:  ponad 10 km                                                                    
Zjawiska atmosferyczne: zamglenie                                                                       

Prawdopodobieństwo: 40 %